Time,TemperatureF,DewpointF,PressureIn,WindDirection,WindDirectionDegrees,WindSpeedMPH,WindSpeedGustMPH,Humidity,HourlyPrecipIn,Conditions,Clouds,dailyrainin,SolarRadiationWatts/m^2,SoftwareType,DateUTC
2013-05-05 00:02:00,27.0,21.0,-100.00,SW,235,1.0,6.0,79,0.00,,,0.00,3.000000,,2013-05-05 08:02:00,
2013-05-05 00:11:00,27.0,21.0,-100.00,SW,235,1.0,6.0,79,0.00,,,0.00,3.000000,,2013-05-05 08:11:00,
2013-05-05 00:42:00,24.0,18.0,-100.00,NNW,345,0.0,4.0,78,0.00,,,0.00,0.000000,,2013-05-05 08:42:00,
2013-05-05 00:53:00,24.0,18.0,-100.00,NNW,345,0.0,4.0,78,0.00,,,0.00,0.000000,,2013-05-05 08:53:00,
2013-05-05 01:01:00,24.0,18.0,-100.00,NNW,345,0.0,4.0,78,0.00,,,0.00,0.000000,,2013-05-05 09:01:00,
2013-05-05 01:11:00,24.0,18.0,-100.00,NNW,345,0.0,4.0,78,0.00,,,0.00,0.000000,,2013-05-05 09:11:00,
2013-05-05 01:42:00,23.0,20.0,-100.00,NNW,330,0.0,0.0,88,0.00,,,0.00,0.000000,,2013-05-05 09:42:00,
2013-05-05 01:52:00,23.0,20.0,-100.00,NNW,330,0.0,0.0,88,0.00,,,0.00,0.000000,,2013-05-05 09:52:00,
2013-05-05 02:02:00,23.0,20.0,-100.00,NNW,330,0.0,0.0,88,0.00,,,0.00,0.000000,,2013-05-05 10:02:00,
2013-05-05 02:12:00,23.0,20.0,-100.00,NNW,330,0.0,0.0,88,0.00,,,0.00,0.000000,,2013-05-05 10:12:00,
2013-05-05 02:32:00,24.0,19.0,-100.00,SSE,165,0.0,3.0,82,0.00,,,0.00,0.000000,,2013-05-05 10:32:00,
2013-05-05 02:42:00,24.0,19.0,-100.00,SSE,165,0.0,3.0,82,0.00,,,0.00,0.000000,,2013-05-05 10:42:00,
2013-05-05 02:52:00,24.0,19.0,-100.00,SSE,165,0.0,3.0,82,0.00,,,0.00,0.000000,,2013-05-05 10:52:00,
2013-05-05 03:01:00,24.0,19.0,-100.00,SSE,165,0.0,3.0,82,0.00,,,0.00,0.000000,,2013-05-05 11:01:00,
2013-05-05 03:11:00,24.0,19.0,-100.00,SSE,165,0.0,3.0,82,0.00,,,0.00,0.000000,,2013-05-05 11:11:00,
2013-05-05 03:32:00,22.0,17.0,-100.00,East,86,0.0,3.0,82,0.00,,,0.00,0.000000,,2013-05-05 11:32:00,
2013-05-05 03:42:00,22.0,17.0,-100.00,East,86,0.0,3.0,82,0.00,,,0.00,0.000000,,2013-05-05 11:42:00,
2013-05-05 03:52:00,22.0,17.0,-100.00,East,86,0.0,3.0,82,0.00,,,0.00,0.000000,,2013-05-05 11:52:00,
2013-05-05 04:01:00,22.0,17.0,-100.00,East,86,0.0,3.0,82,0.00,,,0.00,0.000000,,2013-05-05 12:01:00,
2013-05-05 04:11:00,22.0,17.0,-100.00,East,86,0.0,3.0,82,0.00,,,0.00,0.000000,,2013-05-05 12:11:00,
2013-05-05 04:42:00,23.0,17.0,-100.00,East,82,3.0,6.0,79,0.00,,,0.00,0.000000,,2013-05-05 12:42:00,
2013-05-05 04:52:00,23.0,17.0,-100.00,East,82,3.0,6.0,79,0.00,,,0.00,0.000000,,2013-05-05 12:52:00,
2013-05-05 05:01:00,23.0,17.0,-100.00,East,82,3.0,6.0,79,0.00,,,0.00,0.000000,,2013-05-05 13:01:00,
2013-05-05 05:11:00,23.0,17.0,-100.00,East,82,3.0,6.0,79,0.00,,,0.00,0.000000,,2013-05-05 13:11:00,
2013-05-05 05:42:00,22.0,15.0,-100.00,East,80,3.0,8.0,75,0.00,,,0.00,2.000000,,2013-05-05 13:42:00,
2013-05-05 05:52:00,22.0,15.0,-100.00,East,80,3.0,8.0,75,0.00,,,0.00,2.000000,,2013-05-05 13:52:00,
2013-05-05 06:01:00,22.0,15.0,-100.00,East,80,3.0,8.0,75,0.00,,,0.00,2.000000,,2013-05-05 14:01:00,
2013-05-05 06:11:00,22.0,15.0,-100.00,East,80,3.0,8.0,75,0.00,,,0.00,2.000000,,2013-05-05 14:11:00,
2013-05-05 06:42:00,23.0,16.0,-100.00,East,87,2.0,7.0,75,0.00,,,0.00,18.000000,,2013-05-05 14:42:00,
2013-05-05 06:52:00,23.0,16.0,-100.00,East,87,2.0,7.0,75,0.00,,,0.00,18.000000,,2013-05-05 14:52:00,
2013-05-05 07:01:00,23.0,16.0,-100.00,East,87,2.0,7.0,75,0.00,,,0.00,18.000000,,2013-05-05 15:01:00,
2013-05-05 07:11:00,23.0,16.0,-100.00,East,87,2.0,7.0,75,0.00,,,0.00,18.000000,,2013-05-05 15:11:00,
2013-05-05 07:43:00,25.0,17.0,-100.00,East,83,3.0,7.0,71,0.00,,,0.00,82.000000,,2013-05-05 15:43:00,
2013-05-05 07:53:00,25.0,17.0,-100.00,East,83,3.0,7.0,71,0.00,,,0.00,82.000000,,2013-05-05 15:53:00,
2013-05-05 08:03:00,25.0,17.0,-100.00,East,83,3.0,7.0,71,0.00,,,0.00,82.000000,,2013-05-05 16:03:00,
2013-05-05 08:12:00,25.0,17.0,-100.00,East,83,3.0,7.0,71,0.00,,,0.00,82.000000,,2013-05-05 16:12:00,
2013-05-05 08:42:00,27.0,18.0,-100.00,ENE,66,2.0,6.0,69,0.00,,,0.00,111.000000,,2013-05-05 16:42:00,
2013-05-05 08:52:00,27.0,18.0,-100.00,ENE,66,2.0,6.0,69,0.00,,,0.00,111.000000,,2013-05-05 16:52:00,
2013-05-05 09:02:00,27.0,18.0,-100.00,ENE,66,2.0,6.0,69,0.00,,,0.00,111.000000,,2013-05-05 17:02:00,
2013-05-05 09:12:00,27.0,18.0,-100.00,ENE,66,2.0,6.0,69,0.00,,,0.00,111.000000,,2013-05-05 17:12:00,
2013-05-05 09:42:00,35.0,21.0,-100.00,SSE,168,1.0,4.0,57,0.00,,,0.00,331.000000,,2013-05-05 17:42:00,
2013-05-05 09:52:00,35.0,21.0,-100.00,SSE,168,1.0,4.0,57,0.00,,,0.00,331.000000,,2013-05-05 17:52:00,
2013-05-05 10:01:00,35.0,21.0,-100.00,SSE,168,1.0,4.0,57,0.00,,,0.00,331.000000,,2013-05-05 18:01:00,
2013-05-05 10:11:00,35.0,21.0,-100.00,SSE,168,1.0,4.0,57,0.00,,,0.00,331.000000,,2013-05-05 18:11:00,
2013-05-05 10:42:00,36.0,18.0,-100.00,SSW,207,2.0,8.0,47,0.00,,,0.00,374.000000,,2013-05-05 18:42:00,
2013-05-05 10:52:00,36.0,18.0,-100.00,SSW,207,2.0,8.0,47,0.00,,,0.00,374.000000,,2013-05-05 18:52:00,
2013-05-05 11:01:00,36.0,18.0,-100.00,SSW,207,2.0,8.0,47,0.00,,,0.00,374.000000,,2013-05-05 19:01:00,
2013-05-05 11:11:00,36.0,18.0,-100.00,SSW,207,2.0,8.0,47,0.00,,,0.00,374.000000,,2013-05-05 19:11:00,
2013-05-05 11:42:00,39.0,13.0,-100.00,SSW,211,4.0,13.0,34,0.00,,,0.00,661.000000,,2013-05-05 19:42:00,
2013-05-05 11:52:00,39.0,13.0,-100.00,SSW,211,4.0,13.0,34,0.00,,,0.00,661.000000,,2013-05-05 19:52:00,
2013-05-05 12:01:00,39.0,13.0,-100.00,SSW,211,4.0,13.0,34,0.00,,,0.00,661.000000,,2013-05-05 20:01:00,
2013-05-05 12:11:00,39.0,13.0,-100.00,SSW,211,4.0,13.0,34,0.00,,,0.00,661.000000,,2013-05-05 20:11:00,
2013-05-05 12:42:00,41.0,14.0,-100.00,SSW,205,3.0,12.0,33,0.00,,,0.00,761.000000,,2013-05-05 20:42:00,
2013-05-05 12:52:00,41.0,14.0,-100.00,SSW,205,3.0,12.0,33,0.00,,,0.00,761.000000,,2013-05-05 20:52:00,
2013-05-05 13:01:00,41.0,14.0,-100.00,SSW,205,3.0,12.0,33,0.00,,,0.00,761.000000,,2013-05-05 21:01:00,
2013-05-05 13:11:00,41.0,14.0,-100.00,SSW,205,3.0,12.0,33,0.00,,,0.00,761.000000,,2013-05-05 21:11:00,
2013-05-05 13:42:00,42.0,14.0,-100.00,SSW,201,3.0,14.0,31,0.00,,,0.00,829.000000,,2013-05-05 21:42:00,
2013-05-05 13:53:00,42.0,14.0,-100.00,SSW,201,3.0,14.0,31,0.00,,,0.00,829.000000,,2013-05-05 21:53:00,
2013-05-05 14:02:00,42.0,14.0,-100.00,SSW,201,3.0,14.0,31,0.00,,,0.00,829.000000,,2013-05-05 22:02:00,
2013-05-05 14:12:00,42.0,14.0,-100.00,SSW,201,3.0,14.0,31,0.00,,,0.00,829.000000,,2013-05-05 22:12:00,
2013-05-05 14:42:00,43.0,14.0,-100.00,SSW,212,4.0,13.0,30,0.00,,,0.00,860.000000,,2013-05-05 22:42:00,
2013-05-05 14:52:00,43.0,14.0,-100.00,SSW,212,4.0,13.0,30,0.00,,,0.00,860.000000,,2013-05-05 22:52:00,
2013-05-05 15:02:00,43.0,14.0,-100.00,SSW,212,4.0,13.0,30,0.00,,,0.00,860.000000,,2013-05-05 23:02:00,
2013-05-05 15:11:00,43.0,14.0,-100.00,SSW,212,4.0,13.0,30,0.00,,,0.00,860.000000,,2013-05-05 23:11:00,
2013-05-05 15:32:00,45.0,14.0,-100.00,SSW,204,3.0,10.0,28,0.00,,,0.00,851.000000,,2013-05-05 23:32:00,
2013-05-05 16:01:00,45.0,14.0,-100.00,SSW,204,3.0,10.0,28,0.00,,,0.00,851.000000,,2013-05-06 00:01:00,
2013-05-05 16:11:00,45.0,14.0,-100.00,SSW,204,3.0,10.0,28,0.00,,,0.00,851.000000,,2013-05-06 00:11:00,
2013-05-05 16:42:00,45.0,14.0,-100.00,SSW,207,3.0,11.0,28,0.00,,,0.00,802.000000,,2013-05-06 00:42:00,
2013-05-05 16:51:00,45.0,14.0,-100.00,SSW,207,3.0,11.0,28,0.00,,,0.00,802.000000,,2013-05-06 00:51:00,
2013-05-05 17:01:00,45.0,14.0,-100.00,SSW,207,3.0,11.0,28,0.00,,,0.00,802.000000,,2013-05-06 01:01:00,
2013-05-05 17:11:00,45.0,14.0,-100.00,SSW,207,3.0,11.0,28,0.00,,,0.00,802.000000,,2013-05-06 01:11:00,
2013-05-05 17:42:00,46.0,15.0,-100.00,SSW,200,3.0,11.0,28,0.00,,,0.00,718.000000,,2013-05-06 01:42:00,
2013-05-05 17:52:00,46.0,15.0,-100.00,SSW,200,3.0,11.0,28,0.00,,,0.00,718.000000,,2013-05-06 01:52:00,
2013-05-05 18:01:00,46.0,15.0,-100.00,SSW,200,3.0,11.0,28,0.00,,,0.00,718.000000,,2013-05-06 02:01:00,
2013-05-05 18:11:00,46.0,15.0,-100.00,SSW,200,3.0,11.0,28,0.00,,,0.00,718.000000,,2013-05-06 02:11:00,
2013-05-05 18:42:00,45.0,13.0,-100.00,SSW,206,3.0,9.0,27,0.00,,,0.00,602.000000,,2013-05-06 02:42:00,
2013-05-05 18:52:00,45.0,13.0,-100.00,SSW,206,3.0,9.0,27,0.00,,,0.00,602.000000,,2013-05-06 02:52:00,
2013-05-05 19:01:00,45.0,13.0,-100.00,SSW,206,3.0,9.0,27,0.00,,,0.00,602.000000,,2013-05-06 03:01:00,
2013-05-05 19:11:00,45.0,13.0,-100.00,SSW,206,3.0,9.0,27,0.00,,,0.00,602.000000,,2013-05-06 03:11:00,
2013-05-05 19:42:00,44.0,14.0,-100.00,SW,234,3.0,9.0,29,0.00,,,0.00,465.000000,,2013-05-06 03:42:00,
2013-05-05 19:52:00,44.0,14.0,-100.00,SW,234,3.0,9.0,29,0.00,,,0.00,465.000000,,2013-05-06 03:52:00,
2013-05-05 20:02:00,44.0,14.0,-100.00,SW,234,3.0,9.0,29,0.00,,,0.00,465.000000,,2013-05-06 04:02:00,
2013-05-05 20:12:00,44.0,14.0,-100.00,SW,234,3.0,9.0,29,0.00,,,0.00,465.000000,,2013-05-06 04:12:00,
2013-05-05 20:43:00,41.0,10.0,-100.00,SW,230,2.0,10.0,27,0.00,,,0.00,187.000000,,2013-05-06 04:43:00,
2013-05-05 20:53:00,41.0,10.0,-100.00,SW,230,2.0,10.0,27,0.00,,,0.00,187.000000,,2013-05-06 04:53:00,
2013-05-05 21:02:00,41.0,10.0,-100.00,SW,230,2.0,10.0,27,0.00,,,0.00,187.000000,,2013-05-06 05:02:00,
2013-05-05 21:12:00,41.0,10.0,-100.00,SW,230,2.0,10.0,27,0.00,,,0.00,187.000000,,2013-05-06 05:12:00,
2013-05-05 21:32:00,37.0,8.0,-100.00,West,276,1.0,7.0,29,0.00,,,0.00,92.000000,,2013-05-06 05:32:00,
2013-05-05 21:42:00,37.0,8.0,-100.00,West,276,1.0,7.0,29,0.00,,,0.00,92.000000,,2013-05-06 05:42:00,
2013-05-05 21:52:00,37.0,8.0,-100.00,West,276,1.0,7.0,29,0.00,,,0.00,92.000000,,2013-05-06 05:52:00,
2013-05-05 22:02:00,37.0,8.0,-100.00,West,276,1.0,7.0,29,0.00,,,0.00,92.000000,,2013-05-06 06:02:00,
2013-05-05 22:12:00,37.0,8.0,-100.00,West,276,1.0,7.0,29,0.00,,,0.00,92.000000,,2013-05-06 06:12:00,
2013-05-05 22:42:00,30.0,10.0,-100.00,NW,324,0.0,6.0,42,0.00,,,0.00,17.000000,,2013-05-06 06:42:00,
2013-05-05 22:52:00,30.0,10.0,-100.00,NW,324,0.0,6.0,42,0.00,,,0.00,17.000000,,2013-05-06 06:52:00,
2013-05-05 23:01:00,30.0,10.0,-100.00,NW,324,0.0,6.0,42,0.00,,,0.00,17.000000,,2013-05-06 07:01:00,
2013-05-05 23:11:00,30.0,10.0,-100.00,NW,324,0.0,6.0,42,0.00,,,0.00,17.000000,,2013-05-06 07:11:00,
2013-05-05 23:42:00,24.0,12.0,-100.00,ENE,76,0.0,1.0,60,0.00,,,0.00,4.000000,,2013-05-06 07:42:00,
2013-05-05 23:52:00,24.0,12.0,-100.00,ENE,76,0.0,1.0,60,0.00,,,0.00,4.000000,,2013-05-06 07:52:00,